sensor_id;sensor_type;location;lat;lon;timestamp;temperature;humidity
20380;DHT22;10349;48.666;8.948;2023-05-07T00:00:22;12.30;99.90
20380;DHT22;10349;48.666;8.948;2023-05-07T00:02:49;12.20;99.90
20380;DHT22;10349;48.666;8.948;2023-05-07T00:05:16;12.20;99.90
20380;DHT22;10349;48.666;8.948;2023-05-07T00:07:41;12.20;99.90
20380;DHT22;10349;48.666;8.948;2023-05-07T00:10:07;12.20;99.90
20380;DHT22;10349;48.666;8.948;2023-05-07T00:12:33;12.20;99.90
20380;DHT22;10349;48.666;8.948;2023-05-07T00:15:01;12.10;99.90
20380;DHT22;10349;48.666;8.948;2023-05-07T00:17:27;12.10;99.90
20380;DHT22;10349;48.666;8.948;2023-05-07T00:19:52;12.00;99.90
20380;DHT22;10349;48.666;8.948;2023-05-07T00:22:18;12.10;99.90
20380;DHT22;10349;48.666;8.948;2023-05-07T00:24:44;12.10;99.90
20380;DHT22;10349;48.666;8.948;2023-05-07T00:27:09;12.10;99.90
20380;DHT22;10349;48.666;8.948;2023-05-07T00:29:35;12.10;99.90
20380;DHT22;10349;48.666;8.948;2023-05-07T00:32:02;12.00;99.90
20380;DHT22;10349;48.666;8.948;2023-05-07T00:34:30;12.00;99.90
20380;DHT22;10349;48.666;8.948;2023-05-07T00:36:55;12.00;99.90
20380;DHT22;10349;48.666;8.948;2023-05-07T00:39:21;12.00;99.90
20380;DHT22;10349;48.666;8.948;2023-05-07T00:41:48;12.00;99.90
20380;DHT22;10349;48.666;8.948;2023-05-07T00:44:13;12.00;99.90
20380;DHT22;10349;48.666;8.948;2023-05-07T00:46:40;12.00;99.90
20380;DHT22;10349;48.666;8.948;2023-05-07T00:49:06;12.00;99.90
20380;DHT22;10349;48.666;8.948;2023-05-07T00:51:32;12.00;99.90
20380;DHT22;10349;48.666;8.948;2023-05-07T00:53:59;11.90;99.90
20380;DHT22;10349;48.666;8.948;2023-05-07T00:56:26;11.90;99.90
20380;DHT22;10349;48.666;8.948;2023-05-07T00:58:52;11.90;99.90
20380;DHT22;10349;48.666;8.948;2023-05-07T01:01:18;11.90;99.90
20380;DHT22;10349;48.666;8.948;2023-05-07T01:03:44;12.00;99.90
20380;DHT22;10349;48.666;8.948;2023-05-07T01:06:10;11.90;99.90
20380;DHT22;10349;48.666;8.948;2023-05-07T01:08:39;11.90;99.90
20380;DHT22;10349;48.666;8.948;2023-05-07T01:11:07;11.90;99.90
20380;DHT22;10349;48.666;8.948;2023-05-07T01:13:34;11.90;99.90
20380;DHT22;10349;48.666;8.948;2023-05-07T01:16:01;11.90;99.90
20380;DHT22;10349;48.666;8.948;2023-05-07T01:18:27;11.90;99.90
20380;DHT22;10349;48.666;8.948;2023-05-07T01:20:57;11.80;99.90
20380;DHT22;10349;48.666;8.948;2023-05-07T01:23:24;11.70;99.90
20380;DHT22;10349;48.666;8.948;2023-05-07T01:25:52;11.70;99.90
20380;DHT22;10349;48.666;8.948;2023-05-07T01:28:18;11.70;99.90
20380;DHT22;10349;48.666;8.948;2023-05-07T01:30:47;11.70;99.90
20380;DHT22;10349;48.666;8.948;2023-05-07T01:33:15;11.60;99.90
20380;DHT22;10349;48.666;8.948;2023-05-07T01:35:46;11.60;99.90
20380;DHT22;10349;48.666;8.948;2023-05-07T01:38:13;11.50;99.90
20380;DHT22;10349;48.666;8.948;2023-05-07T01:40:39;11.50;99.90
20380;DHT22;10349;48.666;8.948;2023-05-07T01:43:05;11.40;99.90
20380;DHT22;10349;48.666;8.948;2023-05-07T01:45:34;11.40;99.90
20380;DHT22;10349;48.666;8.948;2023-05-07T01:48:01;11.40;99.90
20380;DHT22;10349;48.666;8.948;2023-05-07T01:50:27;11.40;99.90
20380;DHT22;10349;48.666;8.948;2023-05-07T01:52:53;11.40;99.90
20380;DHT22;10349;48.666;8.948;2023-05-07T01:55:18;11.40;99.90
20380;DHT22;10349;48.666;8.948;2023-05-07T01:57:44;11.40;99.90
20380;DHT22;10349;48.666;8.948;2023-05-07T02:00:10;11.40;99.90
20380;DHT22;10349;48.666;8.948;2023-05-07T02:02:42;11.40;99.90
20380;DHT22;10349;48.666;8.948;2023-05-07T02:05:17;11.40;99.90
20380;DHT22;10349;48.666;8.948;2023-05-07T02:07:46;11.40;99.90
20380;DHT22;10349;48.666;8.948;2023-05-07T02:10:12;11.30;99.90
20380;DHT22;10349;48.666;8.948;2023-05-07T02:12:38;11.30;99.90
20380;DHT22;10349;48.666;8.948;2023-05-07T02:15:04;11.20;99.90
20380;DHT22;10349;48.666;8.948;2023-05-07T02:17:31;11.10;99.90
20380;DHT22;10349;48.666;8.948;2023-05-07T02:20:00;11.10;99.90
20380;DHT22;10349;48.666;8.948;2023-05-07T02:22:26;11.10;99.90
20380;DHT22;10349;48.666;8.948;2023-05-07T02:24:51;11.10;99.90
20380;DHT22;10349;48.666;8.948;2023-05-07T02:27:17;11.10;99.90
20380;DHT22;10349;48.666;8.948;2023-05-07T02:29:44;11.20;99.90
20380;DHT22;10349;48.666;8.948;2023-05-07T02:32:10;11.10;99.90
20380;DHT22;10349;48.666;8.948;2023-05-07T02:34:35;11.10;99.90
20380;DHT22;10349;48.666;8.948;2023-05-07T02:37:01;11.10;99.90
20380;DHT22;10349;48.666;8.948;2023-05-07T02:39:27;11.10;99.90
20380;DHT22;10349;48.666;8.948;2023-05-07T02:41:52;11.10;99.90
20380;DHT22;10349;48.666;8.948;2023-05-07T02:44:18;11.10;99.90
20380;DHT22;10349;48.666;8.948;2023-05-07T02:46:47;11.00;99.90
20380;DHT22;10349;48.666;8.948;2023-05-07T02:49:13;11.00;99.90
20380;DHT22;10349;48.666;8.948;2023-05-07T02:51:39;11.00;99.90
20380;DHT22;10349;48.666;8.948;2023-05-07T02:54:10;11.00;99.90
20380;DHT22;10349;48.666;8.948;2023-05-07T02:56:35;11.00;99.90
20380;DHT22;10349;48.666;8.948;2023-05-07T02:59:01;11.00;99.90
20380;DHT22;10349;48.666;8.948;2023-05-07T03:01:31;11.00;99.90
20380;DHT22;10349;48.666;8.948;2023-05-07T03:04:03;10.90;99.90
20380;DHT22;10349;48.666;8.948;2023-05-07T03:06:29;10.80;99.90
20380;DHT22;10349;48.666;8.948;2023-05-07T03:08:54;10.80;99.90
20380;DHT22;10349;48.666;8.948;2023-05-07T03:11:20;10.70;99.90
20380;DHT22;10349;48.666;8.948;2023-05-07T03:13:46;10.70;99.90
20380;DHT22;10349;48.666;8.948;2023-05-07T03:16:12;10.70;99.90
20380;DHT22;10349;48.666;8.948;2023-05-07T03:18:37;10.60;99.90
20380;DHT22;10349;48.666;8.948;2023-05-07T03:21:03;10.50;99.90
20380;DHT22;10349;48.666;8.948;2023-05-07T03:23:29;10.40;99.90
20380;DHT22;10349;48.666;8.948;2023-05-07T03:25:55;10.40;99.90
20380;DHT22;10349;48.666;8.948;2023-05-07T03:28:20;10.30;99.90
20380;DHT22;10349;48.666;8.948;2023-05-07T03:30:51;10.20;99.90
20380;DHT22;10349;48.666;8.948;2023-05-07T03:33:17;10.20;99.90
20380;DHT22;10349;48.666;8.948;2023-05-07T03:35:43;10.10;99.90
20380;DHT22;10349;48.666;8.948;2023-05-07T03:38:09;10.10;99.90
20380;DHT22;10349;48.666;8.948;2023-05-07T03:40:36;10.10;99.90
20380;DHT22;10349;48.666;8.948;2023-05-07T03:43:03;10.10;99.90
20380;DHT22;10349;48.666;8.948;2023-05-07T03:45:31;10.20;99.90
20380;DHT22;10349;48.666;8.948;2023-05-07T03:48:10;10.30;99.90
20380;DHT22;10349;48.666;8.948;2023-05-07T03:50:37;10.20;99.90
20380;DHT22;10349;48.666;8.948;2023-05-07T03:53:03;10.10;99.90
20380;DHT22;10349;48.666;8.948;2023-05-07T03:55:30;10.20;99.90
20380;DHT22;10349;48.666;8.948;2023-05-07T03:57:58;10.10;99.90
20380;DHT22;10349;48.666;8.948;2023-05-07T04:00:26;10.10;99.90
20380;DHT22;10349;48.666;8.948;2023-05-07T04:02:52;10.10;99.90
20380;DHT22;10349;48.666;8.948;2023-05-07T04:05:24;10.10;99.90
20380;DHT22;10349;48.666;8.948;2023-05-07T04:07:54;10.00;99.90
20380;DHT22;10349;48.666;8.948;2023-05-07T04:10:26;10.00;99.90
20380;DHT22;10349;48.666;8.948;2023-05-07T04:12:55;10.00;99.90
20380;DHT22;10349;48.666;8.948;2023-05-07T04:15:23;10.00;99.90
20380;DHT22;10349;48.666;8.948;2023-05-07T04:17:49;10.00;99.90
20380;DHT22;10349;48.666;8.948;2023-05-07T04:20:17;10.00;99.90
20380;DHT22;10349;48.666;8.948;2023-05-07T04:22:46;10.00;99.90
20380;DHT22;10349;48.666;8.948;2023-05-07T04:25:11;10.00;99.90
20380;DHT22;10349;48.666;8.948;2023-05-07T04:27:37;9.90;99.90
20380;DHT22;10349;48.666;8.948;2023-05-07T04:30:03;10.00;99.90
20380;DHT22;10349;48.666;8.948;2023-05-07T04:32:34;9.90;99.90
20380;DHT22;10349;48.666;8.948;2023-05-07T04:34:59;9.90;99.90
20380;DHT22;10349;48.666;8.948;2023-05-07T04:37:25;9.80;99.90
20380;DHT22;10349;48.666;8.948;2023-05-07T04:39:52;9.80;99.90
20380;DHT22;10349;48.666;8.948;2023-05-07T04:42:18;9.80;99.90
20380;DHT22;10349;48.666;8.948;2023-05-07T04:44:44;9.90;99.90
20380;DHT22;10349;48.666;8.948;2023-05-07T04:47:11;9.80;99.90
20380;DHT22;10349;48.666;8.948;2023-05-07T04:49:38;9.80;99.90
20380;DHT22;10349;48.666;8.948;2023-05-07T04:52:04;9.80;99.90
20380;DHT22;10349;48.666;8.948;2023-05-07T04:54:31;9.90;99.90
20380;DHT22;10349;48.666;8.948;2023-05-07T04:56:56;9.90;99.90
20380;DHT22;10349;48.666;8.948;2023-05-07T04:59:22;10.00;99.90
20380;DHT22;10349;48.666;8.948;2023-05-07T05:01:48;10.00;99.90
20380;DHT22;10349;48.666;8.948;2023-05-07T05:04:14;10.00;99.90
20380;DHT22;10349;48.666;8.948;2023-05-07T05:06:40;10.10;99.90
20380;DHT22;10349;48.666;8.948;2023-05-07T05:09:07;10.10;99.90
20380;DHT22;10349;48.666;8.948;2023-05-07T05:11:34;10.20;99.90
20380;DHT22;10349;48.666;8.948;2023-05-07T05:14:00;10.20;99.90
20380;DHT22;10349;48.666;8.948;2023-05-07T05:16:26;10.30;99.90
20380;DHT22;10349;48.666;8.948;2023-05-07T05:18:52;10.40;99.90
20380;DHT22;10349;48.666;8.948;2023-05-07T05:21:20;10.50;99.90
20380;DHT22;10349;48.666;8.948;2023-05-07T05:23:48;10.70;99.90
20380;DHT22;10349;48.666;8.948;2023-05-07T05:26:17;11.20;99.90
20380;DHT22;10349;48.666;8.948;2023-05-07T05:28:43;11.50;99.90
20380;DHT22;10349;48.666;8.948;2023-05-07T05:31:08;11.60;99.90
20380;DHT22;10349;48.666;8.948;2023-05-07T05:33:35;11.70;99.90
20380;DHT22;10349;48.666;8.948;2023-05-07T05:36:04;12.10;99.90
20380;DHT22;10349;48.666;8.948;2023-05-07T05:38:30;12.60;99.90
20380;DHT22;10349;48.666;8.948;2023-05-07T05:40:56;13.00;99.90
20380;DHT22;10349;48.666;8.948;2023-05-07T05:43:22;13.50;99.90
20380;DHT22;10349;48.666;8.948;2023-05-07T05:45:49;13.80;99.90
20380;DHT22;10349;48.666;8.948;2023-05-07T05:48:14;14.00;99.90
20380;DHT22;10349;48.666;8.948;2023-05-07T05:50:42;14.10;99.90
20380;DHT22;10349;48.666;8.948;2023-05-07T05:53:08;14.20;99.90
20380;DHT22;10349;48.666;8.948;2023-05-07T05:55:35;14.10;99.90
20380;DHT22;10349;48.666;8.948;2023-05-07T05:58:01;14.10;99.90
20380;DHT22;10349;48.666;8.948;2023-05-07T06:00:28;14.10;99.90
20380;DHT22;10349;48.666;8.948;2023-05-07T06:02:59;14.00;99.90
20380;DHT22;10349;48.666;8.948;2023-05-07T06:05:25;14.10;99.90
20380;DHT22;10349;48.666;8.948;2023-05-07T06:07:53;14.10;99.90
20380;DHT22;10349;48.666;8.948;2023-05-07T06:10:19;14.10;99.90
20380;DHT22;10349;48.666;8.948;2023-05-07T06:12:45;14.10;99.90
20380;DHT22;10349;48.666;8.948;2023-05-07T06:15:10;14.10;99.90
20380;DHT22;10349;48.666;8.948;2023-05-07T06:17:37;14.20;99.90
20380;DHT22;10349;48.666;8.948;2023-05-07T06:20:03;14.20;99.90
20380;DHT22;10349;48.666;8.948;2023-05-07T06:22:29;14.40;99.90
20380;DHT22;10349;48.666;8.948;2023-05-07T06:24:55;14.50;99.90
20380;DHT22;10349;48.666;8.948;2023-05-07T06:27:21;14.60;99.90
20380;DHT22;10349;48.666;8.948;2023-05-07T06:29:48;14.70;99.90
20380;DHT22;10349;48.666;8.948;2023-05-07T06:32:16;14.70;99.90
20380;DHT22;10349;48.666;8.948;2023-05-07T06:34:44;14.70;99.90
20380;DHT22;10349;48.666;8.948;2023-05-07T06:37:10;14.70;99.90
20380;DHT22;10349;48.666;8.948;2023-05-07T06:39:51;14.80;99.90
20380;DHT22;10349;48.666;8.948;2023-05-07T06:42:16;14.80;99.90
20380;DHT22;10349;48.666;8.948;2023-05-07T06:44:45;14.90;99.90
20380;DHT22;10349;48.666;8.948;2023-05-07T06:47:13;15.00;99.90
20380;DHT22;10349;48.666;8.948;2023-05-07T06:49:39;15.00;99.90
20380;DHT22;10349;48.666;8.948;2023-05-07T06:52:05;15.10;99.90
20380;DHT22;10349;48.666;8.948;2023-05-07T06:54:31;15.10;99.90
20380;DHT22;10349;48.666;8.948;2023-05-07T06:56:57;15.20;99.90
20380;DHT22;10349;48.666;8.948;2023-05-07T06:59:25;15.30;99.90
20380;DHT22;10349;48.666;8.948;2023-05-07T07:01:51;15.40;99.90
20380;DHT22;10349;48.666;8.948;2023-05-07T07:04:17;15.50;99.90
20380;DHT22;10349;48.666;8.948;2023-05-07T07:06:48;15.60;99.90
20380;DHT22;10349;48.666;8.948;2023-05-07T07:09:13;15.80;99.90
20380;DHT22;10349;48.666;8.948;2023-05-07T07:11:40;16.00;99.90
20380;DHT22;10349;48.666;8.948;2023-05-07T07:14:06;16.10;99.90
20380;DHT22;10349;48.666;8.948;2023-05-07T07:16:36;16.20;99.90
20380;DHT22;10349;48.666;8.948;2023-05-07T07:19:05;16.30;99.90
20380;DHT22;10349;48.666;8.948;2023-05-07T07:21:30;16.50;99.90
20380;DHT22;10349;48.666;8.948;2023-05-07T07:23:57;16.60;99.90
20380;DHT22;10349;48.666;8.948;2023-05-07T07:26:24;16.80;99.90
20380;DHT22;10349;48.666;8.948;2023-05-07T07:28:50;17.00;99.90
20380;DHT22;10349;48.666;8.948;2023-05-07T07:31:19;17.10;99.90
20380;DHT22;10349;48.666;8.948;2023-05-07T07:33:45;17.30;99.90
20380;DHT22;10349;48.666;8.948;2023-05-07T07:36:12;17.50;99.90
20380;DHT22;10349;48.666;8.948;2023-05-07T07:38:38;17.60;99.90
20380;DHT22;10349;48.666;8.948;2023-05-07T07:41:04;17.80;99.90
20380;DHT22;10349;48.666;8.948;2023-05-07T07:43:30;17.80;99.90
20380;DHT22;10349;48.666;8.948;2023-05-07T07:45:56;17.90;99.90
20380;DHT22;10349;48.666;8.948;2023-05-07T07:48:21;17.90;99.90
20380;DHT22;10349;48.666;8.948;2023-05-07T07:50:51;17.90;99.90
20380;DHT22;10349;48.666;8.948;2023-05-07T07:53:18;17.90;99.90
20380;DHT22;10349;48.666;8.948;2023-05-07T07:55:44;18.00;99.90
20380;DHT22;10349;48.666;8.948;2023-05-07T07:58:13;18.00;99.90
20380;DHT22;10349;48.666;8.948;2023-05-07T08:00:39;18.10;99.90
20380;DHT22;10349;48.666;8.948;2023-05-07T08:03:05;18.20;99.90
20380;DHT22;10349;48.666;8.948;2023-05-07T08:05:36;18.30;99.90
20380;DHT22;10349;48.666;8.948;2023-05-07T08:08:04;18.40;99.90
20380;DHT22;10349;48.666;8.948;2023-05-07T08:10:33;18.50;99.90
20380;DHT22;10349;48.666;8.948;2023-05-07T08:13:08;18.80;99.90
20380;DHT22;10349;48.666;8.948;2023-05-07T08:15:35;18.80;99.90
20380;DHT22;10349;48.666;8.948;2023-05-07T08:18:02;18.90;99.90
20380;DHT22;10349;48.666;8.948;2023-05-07T08:20:28;19.00;99.90
20380;DHT22;10349;48.666;8.948;2023-05-07T08:22:55;19.10;99.90
20380;DHT22;10349;48.666;8.948;2023-05-07T08:25:21;19.20;99.90
20380;DHT22;10349;48.666;8.948;2023-05-07T08:27:47;19.20;99.90
20380;DHT22;10349;48.666;8.948;2023-05-07T08:30:15;19.30;99.90
20380;DHT22;10349;48.666;8.948;2023-05-07T08:32:41;19.30;99.90
20380;DHT22;10349;48.666;8.948;2023-05-07T08:35:07;19.40;99.90
20380;DHT22;10349;48.666;8.948;2023-05-07T08:37:33;19.40;99.90
20380;DHT22;10349;48.666;8.948;2023-05-07T08:39:59;19.40;99.90
20380;DHT22;10349;48.666;8.948;2023-05-07T08:42:31;19.50;99.90
20380;DHT22;10349;48.666;8.948;2023-05-07T08:45:03;19.50;99.90
20380;DHT22;10349;48.666;8.948;2023-05-07T08:47:43;19.70;99.90
20380;DHT22;10349;48.666;8.948;2023-05-07T08:50:12;19.70;99.90
20380;DHT22;10349;48.666;8.948;2023-05-07T08:52:42;19.60;99.90
20380;DHT22;10349;48.666;8.948;2023-05-07T08:55:08;19.80;99.90
20380;DHT22;10349;48.666;8.948;2023-05-07T08:57:34;19.80;99.90
20380;DHT22;10349;48.666;8.948;2023-05-07T09:00:03;19.90;99.90
20380;DHT22;10349;48.666;8.948;2023-05-07T09:02:29;19.90;99.90
20380;DHT22;10349;48.666;8.948;2023-05-07T09:04:55;20.00;99.90
20380;DHT22;10349;48.666;8.948;2023-05-07T09:07:21;20.10;99.90
20380;DHT22;10349;48.666;8.948;2023-05-07T09:09:47;20.10;99.90
20380;DHT22;10349;48.666;8.948;2023-05-07T09:12:14;20.10;99.90
20380;DHT22;10349;48.666;8.948;2023-05-07T09:14:40;20.20;99.90
20380;DHT22;10349;48.666;8.948;2023-05-07T09:17:06;20.10;99.90
20380;DHT22;10349;48.666;8.948;2023-05-07T09:19:31;20.00;99.90
20380;DHT22;10349;48.666;8.948;2023-05-07T09:22:01;20.10;99.90
20380;DHT22;10349;48.666;8.948;2023-05-07T09:24:32;20.20;99.90
20380;DHT22;10349;48.666;8.948;2023-05-07T09:27:02;20.30;99.90
20380;DHT22;10349;48.666;8.948;2023-05-07T09:29:30;20.50;99.90
20380;DHT22;10349;48.666;8.948;2023-05-07T09:32:03;20.80;99.90
20380;DHT22;10349;48.666;8.948;2023-05-07T09:34:30;20.90;99.90
20380;DHT22;10349;48.666;8.948;2023-05-07T09:36:58;20.80;99.90
20380;DHT22;10349;48.666;8.948;2023-05-07T09:39:24;20.80;99.90
20380;DHT22;10349;48.666;8.948;2023-05-07T09:41:50;20.90;99.90
20380;DHT22;10349;48.666;8.948;2023-05-07T09:44:34;20.90;99.90
20380;DHT22;10349;48.666;8.948;2023-05-07T09:47:05;21.00;99.90
20380;DHT22;10349;48.666;8.948;2023-05-07T09:49:39;21.20;99.90
20380;DHT22;10349;48.666;8.948;2023-05-07T09:52:09;21.40;99.90
20380;DHT22;10349;48.666;8.948;2023-05-07T09:54:40;21.30;99.90
20380;DHT22;10349;48.666;8.948;2023-05-07T09:57:10;21.40;99.90
20380;DHT22;10349;48.666;8.948;2023-05-07T09:59:38;21.40;99.90
20380;DHT22;10349;48.666;8.948;2023-05-07T10:02:09;21.50;99.90
20380;DHT22;10349;48.666;8.948;2023-05-07T10:04:42;21.50;99.90
20380;DHT22;10349;48.666;8.948;2023-05-07T10:07:08;21.60;99.90
20380;DHT22;10349;48.666;8.948;2023-05-07T10:09:36;21.60;99.90
20380;DHT22;10349;48.666;8.948;2023-05-07T10:12:06;21.60;99.90
20380;DHT22;10349;48.666;8.948;2023-05-07T10:14:32;21.50;99.90
20380;DHT22;10349;48.666;8.948;2023-05-07T10:16:59;21.50;99.90
20380;DHT22;10349;48.666;8.948;2023-05-07T10:19:27;21.50;99.90
20380;DHT22;10349;48.666;8.948;2023-05-07T10:21:59;21.60;99.90
20380;DHT22;10349;48.666;8.948;2023-05-07T10:24:33;21.60;99.90
20380;DHT22;10349;48.666;8.948;2023-05-07T10:27:12;21.60;99.90
20380;DHT22;10349;48.666;8.948;2023-05-07T10:30:00;21.60;99.90
20380;DHT22;10349;48.666;8.948;2023-05-07T10:32:53;21.70;99.90
20380;DHT22;10349;48.666;8.948;2023-05-07T10:35:29;21.90;99.90
20380;DHT22;10349;48.666;8.948;2023-05-07T10:37:59;21.90;99.90
20380;DHT22;10349;48.666;8.948;2023-05-07T10:40:27;22.00;99.90
20380;DHT22;10349;48.666;8.948;2023-05-07T10:42:56;22.00;99.90
20380;DHT22;10349;48.666;8.948;2023-05-07T10:45:23;22.00;99.90
20380;DHT22;10349;48.666;8.948;2023-05-07T10:50:40;22.00;99.90
20380;DHT22;10349;48.666;8.948;2023-05-07T10:58:45;22.10;99.90
20380;DHT22;10349;48.666;8.948;2023-05-07T11:01:52;22.20;99.90
20380;DHT22;10349;48.666;8.948;2023-05-07T11:04:26;22.30;99.90
20380;DHT22;10349;48.666;8.948;2023-05-07T11:07:27;22.30;99.90
20380;DHT22;10349;48.666;8.948;2023-05-07T11:09:58;22.60;99.90
20380;DHT22;10349;48.666;8.948;2023-05-07T11:15:14;22.90;99.90
20380;DHT22;10349;48.666;8.948;2023-05-07T11:17:55;23.20;99.90
20380;DHT22;10349;48.666;8.948;2023-05-07T11:20:45;23.30;99.90
20380;DHT22;10349;48.666;8.948;2023-05-07T11:26:08;23.50;99.90
20380;DHT22;10349;48.666;8.948;2023-05-07T11:28:40;23.50;99.90
20380;DHT22;10349;48.666;8.948;2023-05-07T11:31:06;23.40;99.90
20380;DHT22;10349;48.666;8.948;2023-05-07T11:33:32;23.30;99.90
20380;DHT22;10349;48.666;8.948;2023-05-07T11:36:05;23.40;99.90
20380;DHT22;10349;48.666;8.948;2023-05-07T11:38:38;23.40;99.90
20380;DHT22;10349;48.666;8.948;2023-05-07T11:41:04;23.30;99.90
20380;DHT22;10349;48.666;8.948;2023-05-07T11:43:31;23.20;99.90
20380;DHT22;10349;48.666;8.948;2023-05-07T11:46:09;23.30;99.90
20380;DHT22;10349;48.666;8.948;2023-05-07T11:48:35;23.10;99.90
20380;DHT22;10349;48.666;8.948;2023-05-07T11:51:06;22.90;99.90
20380;DHT22;10349;48.666;8.948;2023-05-07T11:53:36;22.80;99.90
20380;DHT22;10349;48.666;8.948;2023-05-07T11:56:14;22.60;99.90
20380;DHT22;10349;48.666;8.948;2023-05-07T11:58:40;22.40;99.90
20380;DHT22;10349;48.666;8.948;2023-05-07T12:01:11;22.00;99.90
20380;DHT22;10349;48.666;8.948;2023-05-07T12:03:39;21.40;99.90
20380;DHT22;10349;48.666;8.948;2023-05-07T12:06:08;21.10;99.90
20380;DHT22;10349;48.666;8.948;2023-05-07T12:08:36;20.90;99.90
20380;DHT22;10349;48.666;8.948;2023-05-07T12:11:03;20.40;99.90
20380;DHT22;10349;48.666;8.948;2023-05-07T12:13:32;19.70;99.90
20380;DHT22;10349;48.666;8.948;2023-05-07T12:15:58;19.10;99.90
20380;DHT22;10349;48.666;8.948;2023-05-07T12:18:23;18.70;99.90
20380;DHT22;10349;48.666;8.948;2023-05-07T12:20:50;18.40;99.90
20380;DHT22;10349;48.666;8.948;2023-05-07T12:23:16;18.00;99.90
20380;DHT22;10349;48.666;8.948;2023-05-07T12:25:43;17.80;99.90
20380;DHT22;10349;48.666;8.948;2023-05-07T12:28:19;17.70;99.90
20380;DHT22;10349;48.666;8.948;2023-05-07T12:30:52;17.60;99.90
20380;DHT22;10349;48.666;8.948;2023-05-07T12:33:24;17.60;99.90
20380;DHT22;10349;48.666;8.948;2023-05-07T12:35:50;17.70;99.90
20380;DHT22;10349;48.666;8.948;2023-05-07T12:38:49;17.70;99.90
20380;DHT22;10349;48.666;8.948;2023-05-07T12:41:55;17.70;99.90
20380;DHT22;10349;48.666;8.948;2023-05-07T12:44:35;17.70;99.90
20380;DHT22;10349;48.666;8.948;2023-05-07T12:47:16;17.80;99.90
20380;DHT22;10349;48.666;8.948;2023-05-07T12:49:42;17.80;99.90
20380;DHT22;10349;48.666;8.948;2023-05-07T12:52:08;17.70;99.90
20380;DHT22;10349;48.666;8.948;2023-05-07T12:54:37;17.50;99.90
20380;DHT22;10349;48.666;8.948;2023-05-07T12:57:07;17.50;99.90
20380;DHT22;10349;48.666;8.948;2023-05-07T12:59:34;17.30;99.90
20380;DHT22;10349;48.666;8.948;2023-05-07T13:02:00;17.10;99.90
20380;DHT22;10349;48.666;8.948;2023-05-07T13:04:26;17.00;99.90
20380;DHT22;10349;48.666;8.948;2023-05-07T13:06:52;16.90;99.90
20380;DHT22;10349;48.666;8.948;2023-05-07T13:09:17;16.90;99.90
20380;DHT22;10349;48.666;8.948;2023-05-07T13:11:43;16.70;99.90
20380;DHT22;10349;48.666;8.948;2023-05-07T13:14:12;16.40;99.90
20380;DHT22;10349;48.666;8.948;2023-05-07T13:16:43;16.30;99.90
20380;DHT22;10349;48.666;8.948;2023-05-07T13:19:09;16.20;99.90
20380;DHT22;10349;48.666;8.948;2023-05-07T13:21:35;16.10;99.90
20380;DHT22;10349;48.666;8.948;2023-05-07T13:24:01;16.20;99.90
20380;DHT22;10349;48.666;8.948;2023-05-07T13:26:27;16.20;99.90
20380;DHT22;10349;48.666;8.948;2023-05-07T13:28:55;16.20;99.90
20380;DHT22;10349;48.666;8.948;2023-05-07T13:31:38;16.20;99.90
20380;DHT22;10349;48.666;8.948;2023-05-07T13:38:11;15.90;99.90
20380;DHT22;10349;48.666;8.948;2023-05-07T13:40:44;15.70;99.90
20380;DHT22;10349;48.666;8.948;2023-05-07T13:43:09;15.70;99.90
20380;DHT22;10349;48.666;8.948;2023-05-07T13:45:36;15.60;99.90
20380;DHT22;10349;48.666;8.948;2023-05-07T13:48:02;15.50;99.90
20380;DHT22;10349;48.666;8.948;2023-05-07T13:50:28;15.50;99.90
20380;DHT22;10349;48.666;8.948;2023-05-07T13:52:55;15.40;99.90
20380;DHT22;10349;48.666;8.948;2023-05-07T13:55:22;15.20;99.90
20380;DHT22;10349;48.666;8.948;2023-05-07T13:57:58;15.10;99.90
20380;DHT22;10349;48.666;8.948;2023-05-07T14:00:26;15.00;99.90
20380;DHT22;10349;48.666;8.948;2023-05-07T14:02:52;14.90;99.90
20380;DHT22;10349;48.666;8.948;2023-05-07T14:05:18;15.00;99.90
20380;DHT22;10349;48.666;8.948;2023-05-07T14:07:45;14.80;99.90
20380;DHT22;10349;48.666;8.948;2023-05-07T14:10:10;14.90;99.90
20380;DHT22;10349;48.666;8.948;2023-05-07T14:12:36;14.90;99.90
20380;DHT22;10349;48.666;8.948;2023-05-07T14:15:03;15.00;99.90
20380;DHT22;10349;48.666;8.948;2023-05-07T14:17:28;15.00;99.90
20380;DHT22;10349;48.666;8.948;2023-05-07T14:19:54;15.10;99.90
20380;DHT22;10349;48.666;8.948;2023-05-07T14:22:21;15.20;99.90
20380;DHT22;10349;48.666;8.948;2023-05-07T14:24:48;15.40;99.90
20380;DHT22;10349;48.666;8.948;2023-05-07T14:27:13;15.30;99.90
20380;DHT22;10349;48.666;8.948;2023-05-07T14:29:39;15.30;99.90
20380;DHT22;10349;48.666;8.948;2023-05-07T14:32:05;15.30;99.90
20380;DHT22;10349;48.666;8.948;2023-05-07T14:34:31;15.20;99.90
20380;DHT22;10349;48.666;8.948;2023-05-07T14:36:57;15.20;99.90
20380;DHT22;10349;48.666;8.948;2023-05-07T14:39:23;15.20;99.90
20380;DHT22;10349;48.666;8.948;2023-05-07T14:41:49;15.20;99.90
20380;DHT22;10349;48.666;8.948;2023-05-07T14:44:14;15.30;99.90
20380;DHT22;10349;48.666;8.948;2023-05-07T14:46:40;15.30;99.90
20380;DHT22;10349;48.666;8.948;2023-05-07T14:49:06;15.40;99.90
20380;DHT22;10349;48.666;8.948;2023-05-07T14:51:32;15.40;99.90
20380;DHT22;10349;48.666;8.948;2023-05-07T14:53:58;15.40;99.90
20380;DHT22;10349;48.666;8.948;2023-05-07T14:56:24;15.30;99.90
20380;DHT22;10349;48.666;8.948;2023-05-07T14:58:50;15.30;99.90
20380;DHT22;10349;48.666;8.948;2023-05-07T15:01:15;15.10;99.90
20380;DHT22;10349;48.666;8.948;2023-05-07T15:03:41;15.00;99.90
20380;DHT22;10349;48.666;8.948;2023-05-07T15:06:07;15.00;99.90
20380;DHT22;10349;48.666;8.948;2023-05-07T15:08:33;15.00;99.90
20380;DHT22;10349;48.666;8.948;2023-05-07T15:10:58;15.10;99.90
20380;DHT22;10349;48.666;8.948;2023-05-07T15:13:24;15.20;99.90
20380;DHT22;10349;48.666;8.948;2023-05-07T15:15:49;15.40;99.90
20380;DHT22;10349;48.666;8.948;2023-05-07T15:18:15;15.40;99.90
20380;DHT22;10349;48.666;8.948;2023-05-07T15:20:42;15.50;99.90
20380;DHT22;10349;48.666;8.948;2023-05-07T15:23:08;15.50;99.90
20380;DHT22;10349;48.666;8.948;2023-05-07T15:25:43;15.50;99.90
20380;DHT22;10349;48.666;8.948;2023-05-07T15:28:08;15.60;99.90
20380;DHT22;10349;48.666;8.948;2023-05-07T15:30:34;15.60;99.90
20380;DHT22;10349;48.666;8.948;2023-05-07T15:33:01;15.70;99.90
20380;DHT22;10349;48.666;8.948;2023-05-07T15:35:26;15.80;99.90
20380;DHT22;10349;48.666;8.948;2023-05-07T15:37:52;15.80;99.90
20380;DHT22;10349;48.666;8.948;2023-05-07T15:40:19;15.70;99.90
20380;DHT22;10349;48.666;8.948;2023-05-07T15:42:45;15.70;99.90
20380;DHT22;10349;48.666;8.948;2023-05-07T15:45:11;15.70;99.90
20380;DHT22;10349;48.666;8.948;2023-05-07T15:47:37;15.80;99.90
20380;DHT22;10349;48.666;8.948;2023-05-07T15:50:03;15.80;99.90
20380;DHT22;10349;48.666;8.948;2023-05-07T15:52:29;15.80;99.90
20380;DHT22;10349;48.666;8.948;2023-05-07T15:54:56;15.90;99.90